Time;durP1;ratioP1;P1;durP2;ratioP2;P2;SDS_P1;SDS_P2;PMS_P1;PMS_P2;Temp;Humidity;BMP_temperature;BMP_pressure;BME280_temperature;BME280_humidity;BME280_pressure;Samples;Min_cycle;Max_cycle;Signal;HPM_P1;HPM_P2
2022/01/11 00:01:25;;;;;;;107.25;25.75;;;;;;;-0.78;100.00;103001.91;5043974;28;20878;-59
2022/01/11 00:03:52;;;;;;;106.45;27.08;;;;;;;-0.78;100.00;103007.28;5044488;28;20033;-59
2022/01/11 00:06:28;;;;;;;95.78;25.38;;;;;;;-0.79;100.00;103005.56;5044431;28;20025;-59
2022/01/11 00:08:59;;;;;;;97.18;25.98;;;;;;;-0.83;100.00;103013.00;5044343;28;20033;-59
2022/01/11 00:11:25;;;;;;;107.03;27.88;;;;;;;-0.82;100.00;103006.63;5044156;28;20530;-59
2022/01/11 00:13:50;;;;;;;121.78;26.80;;;;;;;-0.83;100.00;103017.53;5043809;28;20036;-59
2022/01/11 00:16:15;;;;;;;84.50;28.00;;;;;;;-0.82;100.00;103019.25;5041839;28;20033;-59
2022/01/11 00:18:40;;;;;;;74.53;25.33;;;;;;;-0.76;100.00;103023.38;5044621;28;20037;-59
2022/01/11 00:21:06;;;;;;;89.65;29.70;;;;;;;-0.72;100.00;103020.34;5043688;28;20029;-59
2022/01/11 00:25:57;;;;;;;90.22;29.27;;;;;;;-0.64;100.00;103023.41;5044063;28;20029;-59
2022/01/11 00:28:25;;;;;;;95.35;28.13;;;;;;;-0.64;100.00;103023.41;5044167;28;20488;-58
2022/01/11 00:30:51;;;;;;;76.13;27.63;;;;;;;-0.61;100.00;103025.91;5044677;28;20035;-59
2022/01/11 00:33:24;;;;;;;84.20;26.27;;;;;;;-0.58;100.00;103030.22;5042805;28;20502;-59
2022/01/11 00:35:58;;;;;;;83.68;27.88;;;;;;;-0.56;100.00;103022.88;5036195;28;20589;-59
2022/01/11 00:38:29;;;;;;;75.10;26.80;;;;;;;-0.59;100.00;103026.66;5043879;28;20040;-59
2022/01/11 00:40:57;;;;;;;66.70;25.98;;;;;;;-0.56;100.00;103028.28;5044351;28;20028;-59
2022/01/11 00:43:24;;;;;;;64.75;26.42;;;;;;;-0.54;100.00;103027.22;5044121;28;20044;-59
2022/01/11 00:45:51;;;;;;;61.22;25.85;;;;;;;-0.54;100.00;103008.31;5043447;28;20033;-59
2022/01/11 00:48:17;;;;;;;58.72;24.00;;;;;;;-0.52;100.00;103011.78;5042687;28;20079;-59
2022/01/11 00:50:43;;;;;;;55.70;23.55;;;;;;;-0.55;100.00;103009.31;5044037;28;20325;-59
2022/01/11 00:53:09;;;;;;;56.92;23.05;;;;;;;-0.56;100.00;103007.56;5043664;28;20037;-59
2022/01/11 00:55:35;;;;;;;59.45;24.10;;;;;;;-0.58;100.00;103016.72;5043186;28;20120;-59
2022/01/11 00:58:05;;;;;;;52.83;25.10;;;;;;;-0.57;100.00;103021.16;5043234;28;20395;-60
2022/01/11 01:00:33;;;;;;;61.92;24.38;;;;;;;-0.62;100.00;103020.59;5044517;28;20017;-58
2022/01/11 01:02:58;;;;;;;55.97;24.27;;;;;;;-0.60;100.00;103033.03;5043398;28;20388;-59
2022/01/11 01:05:24;;;;;;;53.42;23.92;;;;;;;-0.58;100.00;103036.47;5043812;28;20036;-59
2022/01/11 01:07:50;;;;;;;53.95;25.95;;;;;;;-0.58;100.00;103035.63;5043556;28;20033;-59
2022/01/11 01:10:26;;;;;;;57.78;25.45;;;;;;;-0.59;100.00;103028.50;5043247;28;20039;-59
2022/01/11 01:12:53;;;;;;;55.40;23.48;;;;;;;-0.54;100.00;103032.63;5044166;28;20114;-59
2022/01/11 01:15:20;;;;;;;61.23;25.63;;;;;;;-0.50;100.00;103030.59;5042627;28;20490;-59
2022/01/11 01:17:45;;;;;;;60.40;24.42;;;;;;;-0.49;100.00;103024.22;5043124;28;20412;-59
2022/01/11 01:20:11;;;;;;;62.95;27.17;;;;;;;-0.52;100.00;103019.88;5041896;28;20029;-59
2022/01/11 01:22:36;;;;;;;58.42;24.73;;;;;;;-0.57;100.00;103016.63;5042945;28;20075;-59
2022/01/11 01:25:02;;;;;;;52.90;24.48;;;;;;;-0.59;100.00;103017.72;5043310;28;20430;-60
2022/01/11 01:27:28;;;;;;;60.33;25.25;;;;;;;-0.62;100.00;103023.31;5043466;28;20602;-59
2022/01/11 01:29:53;;;;;;;57.38;26.42;;;;;;;-0.66;100.00;103036.16;5043900;28;20033;-59
2022/01/11 01:32:18;;;;;;;56.03;24.00;;;;;;;-0.69;100.00;103035.50;5042001;28;20036;-59
2022/01/11 01:34:44;;;;;;;62.05;25.58;;;;;;;-0.68;100.00;103046.16;5042224;28;20479;-59
2022/01/11 01:37:09;;;;;;;54.88;22.88;;;;;;;-0.67;100.00;103037.09;5042700;28;20609;-59
2022/01/11 01:39:35;;;;;;;57.47;23.98;;;;;;;-0.68;100.00;103035.38;5043583;28;20527;-59
2022/01/11 01:42:05;;;;;;;60.05;25.20;;;;;;;-0.68;100.00;103035.38;5039051;28;20102;-59
2022/01/11 01:44:33;;;;;;;55.35;22.98;;;;;;;-0.70;100.00;103031.94;5033926;28;20371;-59
2022/01/11 01:46:58;;;;;;;61.42;25.45;;;;;;;-0.69;100.00;103032.78;5043163;28;20442;-59
2022/01/11 01:49:23;;;;;;;62.47;25.63;;;;;;;-0.71;100.00;103029.31;5043236;28;20029;-59
2022/01/11 01:51:50;;;;;;;64.40;25.58;;;;;;;-0.72;100.00;103030.28;5043326;28;20436;-59
2022/01/11 01:54:16;;;;;;;61.20;25.92;;;;;;;-0.72;100.00;103025.75;5043507;28;20024;-59
2022/01/11 01:56:42;;;;;;;63.88;25.58;;;;;;;-0.75;100.00;103033.22;5042734;28;20021;-59
2022/01/11 01:59:08;;;;;;;59.47;23.88;;;;;;;-0.75;100.00;103039.47;5023557;28;20373;-59
2022/01/11 02:01:38;;;;;;;61.25;25.73;;;;;;;-0.81;100.00;103046.16;5040498;28;20044;-59
2022/01/11 02:04:04;;;;;;;59.92;25.25;;;;;;;-0.87;100.00;103049.22;5043053;28;20017;-59
2022/01/11 02:06:29;;;;;;;61.67;24.30;;;;;;;-0.84;100.00;103037.38;5043698;28;20036;-59
2022/01/11 02:08:54;;;;;;;57.50;24.30;;;;;;;-0.83;100.00;103029.19;5043536;28;20032;-59
2022/01/11 02:11:23;;;;;;;62.00;24.52;;;;;;;-0.87;100.00;103035.75;5046806;28;20601;-59
2022/01/11 02:13:49;;;;;;;61.65;23.98;;;;;;;-0.88;100.00;103039.41;5046841;28;20478;-59
2022/01/11 02:16:15;;;;;;;65.40;23.85;;;;;;;-0.88;100.00;103043.94;5041380;28;20033;-59
2022/01/11 02:18:41;;;;;;;59.38;24.35;;;;;;;-0.89;100.00;103053.88;5047501;28;20845;-59
2022/01/11 02:21:06;;;;;;;57.45;23.33;;;;;;;-0.89;100.00;103050.31;5046675;28;20013;-59
2022/01/11 02:23:32;;;;;;;56.50;23.40;;;;;;;-0.89;100.00;103058.41;5046522;28;20044;-60
2022/01/11 02:25:58;;;;;;;59.05;24.13;;;;;;;-0.89;100.00;103058.41;5047029;28;20017;-59
2022/01/11 02:28:26;;;;;;;62.95;24.15;;;;;;;-0.91;100.00;103054.94;5046605;28;20025;-59
2022/01/11 02:30:52;;;;;;;58.87;23.67;;;;;;;-0.87;100.00;103056.47;5045920;28;20394;-59
2022/01/11 02:33:32;;;;;;;61.00;25.20;;;;;;;-0.84;100.00;103061.66;5046702;28;20384;-59
2022/01/11 02:36:08;;;;;;;56.47;22.42;;;;;;;-0.87;100.00;103075.34;5046207;28;20798;-59
2022/01/11 02:38:33;;;;;;;60.08;23.58;;;;;;;-0.87;100.00;103075.34;5046989;28;20072;-60
2022/01/11 02:40:59;;;;;;;60.22;24.27;;;;;;;-0.85;100.00;103077.00;5046854;28;20065;-58
2022/01/11 02:43:25;;;;;;;70.50;27.55;;;;;;;-0.85;100.00;103078.81;5045898;28;20056;-59
2022/01/11 02:45:51;;;;;;;61.03;23.60;;;;;;;-0.81;100.00;103078.53;5045773;28;20027;-59
2022/01/11 02:48:17;;;;;;;69.75;26.85;;;;;;;-0.85;100.00;103074.28;5046363;28;20032;-59
2022/01/11 02:50:46;;;;;;;59.85;26.55;;;;;;;-0.82;100.00;103086.69;5046499;28;20028;-59
2022/01/11 02:53:11;;;;;;;63.25;24.50;;;;;;;-0.83;100.00;103082.28;5046415;28;20414;-59
2022/01/11 02:55:39;;;;;;;64.68;25.90;;;;;;;-0.80;100.00;103084.78;5046234;28;20021;-59
2022/01/11 02:58:05;;;;;;;69.18;25.27;;;;;;;-0.78;100.00;103085.53;5045856;28;20111;-59
2022/01/11 03:00:30;;;;;;;69.13;25.50;;;;;;;-0.74;100.00;103086.19;5013385;23;20081;-59
2022/01/11 03:02:56;;;;;;;65.38;26.77;;;;;;;-0.73;100.00;103093.31;5006359;28;20531;-59
2022/01/11 03:05:21;;;;;;;63.78;25.38;;;;;;;-0.74;100.00;103089.75;5005872;28;20030;-58
2022/01/11 03:07:47;;;;;;;62.60;26.27;;;;;;;-0.70;100.00;103091.28;5006288;28;20373;-59
2022/01/11 03:10:32;;;;;;;69.70;27.33;;;;;;;-0.71;100.00;103081.47;5006221;28;20251;-59
2022/01/11 03:13:02;;;;;;;61.83;26.05;;;;;;;-0.70;100.00;103085.91;5004780;28;20022;-59
2022/01/11 03:15:27;;;;;;;68.88;26.00;;;;;;;-0.70;100.00;103085.91;5006260;28;20048;-59
2022/01/11 03:17:52;;;;;;;66.63;27.33;;;;;;;-0.67;100.00;103082.97;5005956;28;20504;-59
2022/01/11 03:20:18;;;;;;;61.42;25.80;;;;;;;-0.71;100.00;103081.47;5004786;28;20396;-59
2022/01/11 03:22:43;;;;;;;69.28;28.77;;;;;;;-0.76;100.00;103083.63;5006045;28;20038;-59
2022/01/11 03:25:09;;;;;;;69.50;28.45;;;;;;;-0.73;100.00;103082.53;5006374;28;20772;-59
2022/01/11 03:27:35;;;;;;;66.35;27.23;;;;;;;-0.74;100.00;103084.38;5005736;28;20177;-59
2022/01/11 03:30:00;;;;;;;64.63;26.90;;;;;;;-0.72;100.00;103082.41;5006213;28;20076;-59
2022/01/11 03:32:26;;;;;;;64.32;26.90;;;;;;;-0.72;100.00;103090.50;5004909;28;20075;-59
2022/01/11 03:34:51;;;;;;;62.42;26.23;;;;;;;-0.70;100.00;103075.09;5005835;28;20029;-59
2022/01/11 03:37:18;;;;;;;71.00;28.98;;;;;;;-0.70;100.00;103075.09;5006055;28;20226;-59
2022/01/11 03:39:44;;;;;;;66.53;26.95;;;;;;;-0.69;100.00;103065.19;5005815;28;20030;-59
2022/01/11 03:42:10;;;;;;;70.15;28.50;;;;;;;-0.70;100.00;103074.25;5004966;28;20026;-59
2022/01/11 03:44:35;;;;;;;70.53;29.33;;;;;;;-0.69;100.00;103076.84;5005719;28;20033;-60
2022/01/11 03:47:01;;;;;;;66.43;27.45;;;;;;;-0.69;100.00;103081.38;5005736;28;20045;-59
2022/01/11 03:49:26;;;;;;;65.93;29.00;;;;;;;-0.68;100.00;103080.38;5005816;28;20034;-59
2022/01/11 03:51:52;;;;;;;74.18;28.67;;;;;;;-0.69;100.00;103086.75;5005403;28;20032;-59
2022/01/11 03:54:24;;;;;;;64.82;27.83;;;;;;;-0.70;100.00;103077.81;5005848;28;20100;-59
2022/01/11 03:56:49;;;;;;;66.35;27.70;;;;;;;-0.71;100.00;103083.28;5004913;28;20034;-59
2022/01/11 03:59:15;;;;;;;66.90;26.75;;;;;;;-0.72;100.00;103089.66;4995721;28;20715;-59
2022/01/11 04:01:41;;;;;;;66.57;26.23;;;;;;;-0.74;100.00;103087.06;4985652;28;20030;-59
2022/01/11 04:04:09;;;;;;;70.72;28.30;;;;;;;-0.75;100.00;103087.19;4994469;28;20037;-59
2022/01/11 04:06:34;;;;;;;61.38;25.35;;;;;;;-0.76;100.00;103085.41;5005647;28;20388;-59
2022/01/11 04:08:59;;;;;;;65.47;27.88;;;;;;;-0.79;100.00;103090.06;5005758;28;20034;-59
2022/01/11 04:11:25;;;;;;;65.00;27.50;;;;;;;-0.77;100.00;103089.09;5005040;28;20029;-59
2022/01/11 04:13:50;;;;;;;71.93;28.15;;;;;;;-0.73;100.00;103093.31;5004601;28;20037;-59
2022/01/11 04:16:16;;;;;;;70.53;28.30;;;;;;;-0.76;100.00;103085.41;5004129;28;20026;-59
2022/01/11 04:18:41;;;;;;;67.40;27.77;;;;;;;-0.75;100.00;103087.19;5005095;28;20124;-59
2022/01/11 04:21:06;;;;;;;76.95;29.55;;;;;;;-0.73;100.00;103094.19;5004901;28;20030;-59
2022/01/11 04:23:33;;;;;;;69.18;27.33;;;;;;;-0.79;100.00;103097.28;5005353;28;20026;-60
2022/01/11 04:25:59;;;;;;;70.07;26.55;;;;;;;-0.80;100.00;103090.19;5005427;28;20187;-59
2022/01/11 04:28:25;;;;;;;68.10;27.67;;;;;;;-0.80;100.00;103090.19;5003628;28;20480;-59
2022/01/11 04:30:52;;;;;;;73.35;30.33;;;;;;;-0.82;100.00;103100.19;5004197;28;20022;-59
2022/01/11 04:33:18;;;;;;;72.78;29.30;;;;;;;-0.82;100.00;103101.03;5004617;28;20083;-59
2022/01/11 04:35:48;;;;;;;68.63;30.00;;;;;;;-0.85;100.00;103097.72;5004016;28;20121;-59
2022/01/11 04:38:13;;;;;;;65.70;27.95;;;;;;;-0.85;100.00;103114.75;5004290;28;20036;-59
2022/01/11 04:40:39;;;;;;;70.05;27.45;;;;;;;-0.84;100.00;103116.47;5004533;28;20042;-59
2022/01/11 04:43:04;;;;;;;72.15;30.38;;;;;;;-0.84;100.00;103126.41;5004285;28;20113;-59
2022/01/11 04:45:29;;;;;;;77.90;31.73;;;;;;;-0.82;100.00;103119.06;5003741;28;20481;-59
2022/01/11 04:47:56;;;;;;;70.68;29.10;;;;;;;-0.85;100.00;103109.34;5004590;28;20056;-59
2022/01/11 04:50:24;;;;;;;71.07;26.30;;;;;;;-0.80;100.00;103103.66;5004325;28;20113;-59
2022/01/11 04:52:50;;;;;;;65.53;28.23;;;;;;;-0.86;100.00;103095.97;5002781;28;20108;-59
2022/01/11 04:55:15;;;;;;;73.22;29.13;;;;;;;-0.91;100.00;103103.47;4989339;28;20185;-58
2022/01/11 04:57:41;;;;;;;76.38;29.90;;;;;;;-0.91;100.00;103093.59;4989201;28;20036;-59
2022/01/11 05:00:07;;;;;;;68.10;29.27;;;;;;;-0.91;100.00;103107.06;5003284;28;20042;-59
2022/01/11 05:02:32;;;;;;;73.05;29.40;;;;;;;-0.92;100.00;103097.22;4997055;28;20033;-60
2022/01/11 05:04:58;;;;;;;74.18;29.23;;;;;;;-0.90;100.00;103099.84;4993905;28;20432;-59
2022/01/11 05:07:23;;;;;;;72.50;31.08;;;;;;;-0.90;100.00;103105.25;4995109;28;20017;-59
2022/01/11 05:09:49;;;;;;;77.00;29.23;;;;;;;-0.93;100.00;103102.72;5004482;28;20040;-59
2022/01/11 05:12:14;;;;;;;82.00;30.88;;;;;;;-0.98;100.00;103097.63;5003225;28;20025;-59
2022/01/11 05:14:39;;;;;;;83.50;30.52;;;;;;;-0.99;100.00;103104.00;5003743;28;20057;-59
2022/01/11 05:17:05;;;;;;;76.88;29.75;;;;;;;-1.00;100.00;103104.09;5002651;28;20913;-58
2022/01/11 05:19:30;;;;;;;68.03;28.52;;;;;;;-1.00;100.00;103099.56;5004813;28;20053;-59
2022/01/11 05:21:55;;;;;;;66.95;28.38;;;;;;;-1.10;100.00;103099.31;5003977;28;20392;-59
2022/01/11 05:24:21;;;;;;;71.35;27.83;;;;;;;-1.10;100.00;103099.31;5003871;28;20037;-59
2022/01/11 05:26:46;;;;;;;72.75;28.75;;;;;;;-1.14;100.00;103105.84;5001599;28;20149;-59
2022/01/11 05:29:11;;;;;;;62.20;27.90;;;;;;;-1.18;100.00;103100.75;5004310;28;20026;-59
2022/01/11 05:31:36;;;;;;;73.10;29.80;;;;;;;-1.22;100.00;103093.81;5002505;28;20026;-59
2022/01/11 05:34:03;;;;;;;76.35;29.90;;;;;;;-1.22;100.00;103094.69;5003369;28;20026;-60
2022/01/11 05:36:28;;;;;;;75.30;29.73;;;;;;;-1.24;100.00;103104.72;5004444;28;20376;-59
2022/01/11 05:38:54;;;;;;;73.13;30.38;;;;;;;-1.30;100.00;103102.41;5003594;28;20034;-59
2022/01/11 05:41:19;;;;;;;73.68;30.27;;;;;;;-1.29;100.00;103103.28;5003133;28;20041;-59
2022/01/11 05:43:44;;;;;;;78.85;32.17;;;;;;;-1.30;100.00;103102.41;5003520;28;20022;-59
2022/01/11 05:46:09;;;;;;;78.47;31.98;;;;;;;-1.36;100.00;103098.28;5002625;28;20076;-59
2022/01/11 05:48:35;;;;;;;81.47;32.72;;;;;;;-1.41;100.00;103103.09;5003479;28;20029;-59
2022/01/11 05:51:00;;;;;;;79.82;31.05;;;;;;;-1.37;100.00;103106.44;5004530;28;20634;-59
2022/01/11 05:53:26;;;;;;;79.25;31.67;;;;;;;-1.42;100.00;103112.16;5003458;28;20036;-59
2022/01/11 05:55:51;;;;;;;80.65;33.33;;;;;;;-1.44;100.00;103115.91;5003090;28;20034;-59
2022/01/11 05:58:16;;;;;;;80.43;31.83;;;;;;;-1.47;100.00;103111.59;5003653;28;20029;-59
2022/01/11 06:00:41;;;;;;;83.88;32.58;;;;;;;-1.49;100.00;103131.50;5001980;28;20439;-59
2022/01/11 06:03:07;;;;;;;76.63;32.60;;;;;;;-1.51;100.00;103125.34;5002581;28;20030;-59
2022/01/11 06:05:37;;;;;;;82.32;32.05;;;;;;;-1.52;100.00;103132.56;5001817;28;20030;-60
2022/01/11 06:08:02;;;;;;;81.28;32.25;;;;;;;-1.55;100.00;103139.97;4994874;28;20298;-60
2022/01/11 06:10:28;;;;;;;87.90;33.90;;;;;;;-1.57;100.00;103145.47;4985708;28;20029;-59
2022/01/11 06:12:53;;;;;;;83.40;32.15;;;;;;;-1.59;100.00;103150.91;5003442;28;20371;-59
2022/01/11 06:15:18;;;;;;;86.32;33.03;;;;;;;-1.61;100.00;103150.16;5001835;28;20045;-59
2022/01/11 06:17:43;;;;;;;89.00;33.00;;;;;;;-1.62;100.00;103159.22;5001232;28;20519;-59
2022/01/11 06:20:09;;;;;;;85.32;33.42;;;;;;;-1.63;100.00;103154.75;4984045;28;20034;-59
2022/01/11 06:22:35;;;;;;;84.80;32.22;;;;;;;-1.62;100.00;103156.50;4994132;28;20030;-59
2022/01/11 06:25:03;;;;;;;85.13;33.42;;;;;;;-1.64;100.00;103169.19;5003980;28;20026;-59
2022/01/11 06:27:29;;;;;;;;;;;;;;;-1.63;100.00;103165.53;5003822;28;20036;-59
2022/01/11 06:29:54;;;;;;;75.10;32.40;;;;;;;-1.66;100.00;103171.13;5003461;28;19917;-59
2022/01/11 06:32:19;;;;;;;79.93;32.60;;;;;;;-1.66;100.00;103170.28;5001687;28;20084;-59
2022/01/11 06:34:46;;;;;;;81.40;31.95;;;;;;;-1.67;100.00;103173.94;5003333;28;20056;-59
2022/01/11 06:37:12;;;;;;;75.72;31.50;;;;;;;-1.68;100.00;103169.47;5002168;28;20116;-59
2022/01/11 06:39:38;;;;;;;86.22;33.83;;;;;;;-1.70;100.00;103174.09;5003161;28;20157;-59
2022/01/11 06:42:05;;;;;;;82.55;32.05;;;;;;;-1.72;100.00;103168.81;5002712;28;20034;-60
2022/01/11 06:44:31;;;;;;;83.15;32.70;;;;;;;-1.74;100.00;103170.72;5003321;28;20484;-59
2022/01/11 06:46:56;;;;;;;79.60;31.83;;;;;;;-1.75;100.00;103177.06;5002956;28;20030;-59
2022/01/11 06:49:21;;;;;;;76.82;32.10;;;;;;;-1.75;100.00;103181.59;5002685;28;20160;-59
2022/01/11 06:51:47;;;;;;;73.93;29.17;;;;;;;-1.77;100.00;103180.81;5003245;28;20108;-59
2022/01/11 06:54:12;;;;;;;72.05;30.17;;;;;;;-1.77;100.00;103188.88;5002723;28;20503;-59
2022/01/11 06:56:37;;;;;;;78.13;31.15;;;;;;;-1.78;100.00;103185.31;5003996;28;20023;-59
2022/01/11 06:59:02;;;;;;;71.03;29.60;;;;;;;-1.76;100.00;103186.13;5005555;28;20575;-59
2022/01/11 07:01:29;;;;;;;79.85;30.08;;;;;;;-1.78;100.00;103179.06;5006473;28;20029;-59
2022/01/11 07:03:54;;;;;;;69.32;29.02;;;;;;;-1.77;100.00;103176.31;5006687;28;20460;-58
2022/01/11 07:06:19;;;;;;;78.65;30.33;;;;;;;-1.81;100.00;103171.19;4998142;28;20083;-59
2022/01/11 07:08:45;;;;;;;73.63;29.45;;;;;;;-1.81;100.00;103179.28;5005700;28;20022;-59
2022/01/11 07:11:14;;;;;;;75.65;29.88;;;;;;;-1.85;100.00;103183.97;5006195;28;20080;-60
2022/01/11 07:13:39;;;;;;;71.07;30.38;;;;;;;-1.83;100.00;103190.13;5006310;28;20480;-59
2022/01/11 07:16:04;;;;;;;71.32;28.83;;;;;;;-1.86;100.00;103198.41;5000927;28;20030;-59
2022/01/11 07:18:30;;;;;;;71.28;30.60;;;;;;;-1.88;100.00;103200.31;5003722;28;20037;-59
2022/01/11 07:20:55;;;;;;;76.50;29.70;;;;;;;-1.88;100.00;103203.00;5006174;28;20042;-59
2022/01/11 07:23:20;;;;;;;70.25;28.23;;;;;;;-1.89;100.00;103206.66;4995601;28;20282;-59
2022/01/11 07:25:46;;;;;;;71.20;31.27;;;;;;;-1.88;100.00;103200.31;5001405;28;20476;-59
2022/01/11 07:28:14;;;;;;;67.03;30.23;;;;;;;-1.87;100.00;103207.44;5005468;28;20030;-59
2022/01/11 07:30:39;;;;;;;66.78;29.55;;;;;;;-1.87;100.00;103204.75;5005730;28;20096;-59
2022/01/11 07:33:04;;;;;;;65.18;28.98;;;;;;;-1.88;100.00;103214.63;5003095;28;20038;-60
2022/01/11 07:35:30;;;;;;;73.45;30.85;;;;;;;-1.88;100.00;103213.78;5006337;28;20032;-59
2022/01/11 07:37:55;;;;;;;73.82;31.38;;;;;;;-1.88;100.00;103221.84;5005707;28;20116;-60
2022/01/11 07:40:21;;;;;;;71.95;30.65;;;;;;;-1.86;100.00;103231.59;5005916;28;20033;-59
2022/01/11 07:42:46;;;;;;;72.15;29.83;;;;;;;-1.86;100.00;103231.59;5006120;28;20040;-59
2022/01/11 07:45:12;;;;;;;70.95;29.80;;;;;;;-1.82;100.00;103229.59;5004764;28;20022;-59
2022/01/11 07:47:37;;;;;;;66.82;30.13;;;;;;;-1.86;100.00;103234.28;5004675;28;20026;-60
2022/01/11 07:50:04;;;;;;;60.40;27.17;;;;;;;-1.81;100.00;103234.00;5006023;28;20054;-61
2022/01/11 07:52:29;;;;;;;59.63;28.10;;;;;;;-1.81;100.00;103234.00;5005572;28;20022;-59
2022/01/11 07:54:54;;;;;;;68.20;28.77;;;;;;;-1.78;100.00;103236.50;5006273;28;20033;-59
2022/01/11 07:57:19;;;;;;;66.25;29.05;;;;;;;-1.75;100.00;103235.47;5005389;28;20479;-59
2022/01/11 07:59:45;;;;;;;63.13;29.20;;;;;;;-1.72;100.00;103233.47;5005544;28;20046;-59
2022/01/11 08:02:10;;;;;;;61.65;29.02;;;;;;;-1.69;100.00;103230.56;5003516;28;20072;-59
2022/01/11 08:04:35;;;;;;;58.45;28.83;;;;;;;-1.63;100.00;103235.59;5005651;28;20010;-60
2022/01/11 08:07:02;;;;;;;59.65;30.83;;;;;;;-1.56;100.00;103238.81;5005474;28;20069;-59
2022/01/11 08:09:27;;;;;;;59.00;29.02;;;;;;;-1.52;100.00;103229.56;5005950;28;20092;-59
2022/01/11 08:11:55;;;;;;;60.72;28.77;;;;;;;-1.27;100.00;103230.75;5002013;28;20368;-59
2022/01/11 08:14:22;;;;;;;61.80;28.15;;;;;;;-0.93;100.00;103235.75;4987346;28;20113;-59
2022/01/11 08:16:47;;;;;;;55.60;28.75;;;;;;;-0.62;98.57;103236.50;4986697;28;20026;-59
2022/01/11 08:19:12;;;;;;;45.28;26.02;;;;;;;-0.26;96.76;103230.53;4996192;28;20026;-59
2022/01/11 08:21:37;;;;;;;46.15;24.88;;;;;;;0.24;95.48;103232.53;4996374;28;20461;-59
2022/01/11 08:24:03;;;;;;;50.22;24.08;;;;;;;0.75;93.41;103227.19;4997904;28;20170;-60
2022/01/11 08:26:28;;;;;;;42.53;25.13;;;;;;;0.64;91.04;103228.91;4992174;28;20029;-59
2022/01/11 08:28:53;;;;;;;41.58;22.75;;;;;;;0.50;91.02;103233.44;5004554;28;20021;-59
2022/01/11 08:31:20;;;;;;;42.35;22.67;;;;;;;0.66;91.35;103232.38;4988233;28;20034;-59
2022/01/11 08:33:46;;;;;;;38.50;21.50;;;;;;;0.96;90.30;103232.94;4996078;28;20025;-59
2022/01/11 08:36:12;;;;;;;36.83;21.38;;;;;;;1.07;89.06;103231.31;5000933;28;20038;-59
2022/01/11 08:38:37;;;;;;;38.50;22.38;;;;;;;1.27;88.00;103236.16;5004218;28;20096;-59
2022/01/11 08:41:03;;;;;;;38.70;22.30;;;;;;;1.60;87.65;103230.09;5002352;28;20041;-61
2022/01/11 08:43:28;;;;;;;34.90;20.23;;;;;;;1.82;86.99;103234.75;5002217;28;20022;-60
2022/01/11 08:45:54;;;;;;;37.25;21.08;;;;;;;1.67;85.39;103228.63;5004535;28;20068;-59
2022/01/11 08:48:20;;;;;;;35.38;20.67;;;;;;;1.34;85.95;103232.00;5004058;28;20036;-59
2022/01/11 08:50:45;;;;;;;38.03;22.25;;;;;;;1.19;87.12;103231.28;5004127;28;20022;-59
2022/01/11 08:53:10;;;;;;;35.45;20.75;;;;;;;1.18;87.60;103243.09;5003222;28;20121;-59
2022/01/11 08:55:36;;;;;;;35.65;21.20;;;;;;;1.36;88.07;103240.88;5004083;28;20034;-59
2022/01/11 08:58:01;;;;;;;36.17;21.15;;;;;;;1.33;86.66;103243.81;5003807;28;20117;-61
2022/01/11 09:00:27;;;;;;;35.42;21.60;;;;;;;1.30;87.54;103234.06;5004075;28;20080;-59
2022/01/11 09:02:52;;;;;;;37.58;22.17;;;;;;;1.30;87.78;103241.31;5003791;28;20041;-59
2022/01/11 09:05:19;;;;;;;39.00;21.73;;;;;;;1.28;86.97;103238.72;5003584;28;20494;-59
2022/01/11 09:07:45;;;;;;;36.63;22.17;;;;;;;1.22;86.78;103239.19;5004528;28;20388;-59
2022/01/11 09:10:11;;;;;;;39.28;21.92;;;;;;;1.46;86.66;103250.03;4983956;28;20026;-59
2022/01/11 09:12:36;;;;;;;39.00;21.58;;;;;;;1.73;86.36;103240.88;4991885;28;20097;-60
2022/01/11 09:15:05;;;;;;;30.73;19.88;;;;;;;1.98;85.18;103246.19;5003055;28;20584;-60
2022/01/11 09:17:30;;;;;;;35.28;20.00;;;;;;;2.20;84.52;103250.00;5015522;28;20044;-59
2022/01/11 09:19:56;;;;;;;37.20;21.52;;;;;;;2.19;83.65;103246.41;4994498;28;20552;-59
2022/01/11 09:22:21;;;;;;;36.28;22.02;;;;;;;2.26;83.74;103244.94;4995840;28;20092;-59
2022/01/11 09:24:47;;;;;;;38.67;21.17;;;;;;;2.02;83.76;103241.41;5003295;28;20030;-59
2022/01/11 09:27:13;;;;;;;36.05;19.60;;;;;;;1.92;84.61;103243.06;5002199;28;20084;-59
2022/01/11 09:29:38;;;;;;;32.83;20.38;;;;;;;1.91;84.96;103253.03;5002409;28;20022;-59
2022/01/11 09:32:06;;;;;;;33.65;19.75;;;;;;;2.17;84.99;103256.50;5002215;28;20033;-60
2022/01/11 09:34:31;;;;;;;36.07;20.47;;;;;;;2.60;82.87;103256.78;5000612;28;20160;-60
2022/01/11 09:36:57;;;;;;;34.35;18.65;;;;;;;3.04;81.10;103251.53;5001220;28;20121;-59
2022/01/11 09:39:23;;;;;;;34.13;18.65;;;;;;;3.16;80.60;103252.44;5001872;28;20445;-59
2022/01/11 09:41:49;;;;;;;33.25;19.70;;;;;;;3.20;80.99;103270.22;5001613;28;20135;-59
2022/01/11 09:44:15;;;;;;;33.03;19.73;;;;;;;3.25;81.12;103268.00;4989984;28;20057;-59
2022/01/11 09:46:41;;;;;;;32.75;18.35;;;;;;;3.06;80.25;103264.03;5002445;28;20030;-59
2022/01/11 09:49:06;;;;;;;32.58;18.95;;;;;;;2.86;80.44;103268.31;4991503;28;20121;-60
2022/01/11 09:51:33;;;;;;;31.30;19.70;;;;;;;2.48;82.09;103283.97;4993292;28;20030;-61
2022/01/11 09:53:59;;;;;;;33.33;18.05;;;;;;;2.45;82.06;103276.09;5002963;28;20084;-59
2022/01/11 09:56:24;;;;;;;32.45;19.27;;;;;;;2.64;82.31;103278.25;4999313;28;20042;-60
2022/01/11 09:58:50;;;;;;;30.88;18.27;;;;;;;2.49;81.79;103273.03;5000697;28;20139;-60
2022/01/11 10:01:15;;;;;;;32.58;19.60;;;;;;;2.33;83.45;103283.31;4999509;28;20129;-59
2022/01/11 10:04:06;;;;;;;35.25;19.88;;;;;;;2.24;83.81;103284.03;5001308;28;20030;-59
2022/01/11 10:06:37;;;;;;;33.30;20.63;;;;;;;2.03;84.50;103289.22;5002649;28;20053;-61
2022/01/11 10:09:20;;;;;;;32.95;19.25;;;;;;;1.94;85.25;103279.94;4999468;28;20022;-61
2022/01/11 10:11:49;;;;;;;32.08;18.77;;;;;;;1.81;84.76;103293.50;5001343;28;20045;-59
2022/01/11 10:14:18;;;;;;;;;;;;;;;1.84;86.52;103288.88;5003137;28;20112;-59
2022/01/11 10:16:44;;;;;;;33.05;19.98;;;;;;;1.71;86.14;103284.31;5001767;28;20312;-60
2022/01/11 10:19:28;;;;;;;31.92;19.77;;;;;;;1.69;87.54;103280.00;5001625;28;20034;-59
2022/01/11 10:21:56;;;;;;;34.75;19.48;;;;;;;1.74;87.57;103275.13;4998819;28;20113;-59
2022/01/11 10:24:32;;;;;;;30.83;19.08;;;;;;;1.83;86.88;103276.31;5002113;28;20544;-59
2022/01/11 10:26:59;;;;;;;36.17;19.38;;;;;;;1.79;87.03;103270.22;5003050;28;20034;-59
2022/01/11 10:29:31;;;;;;;32.92;19.00;;;;;;;1.81;87.17;103277.25;5001495;28;20033;-61
2022/01/11 10:31:59;;;;;;;31.55;19.52;;;;;;;1.89;87.07;103278.53;5006106;28;20446;-59
2022/01/11 10:34:33;;;;;;;35.92;18.88;;;;;;;1.95;86.98;103278.09;5006334;28;20080;-59
2022/01/11 10:37:01;;;;;;;29.85;18.83;;;;;;;1.97;87.16;103276.97;5007490;28;20099;-59
2022/01/11 10:39:30;;;;;;;33.58;19.00;;;;;;;2.01;87.23;103275.75;5006029;28;20101;-60
2022/01/11 10:41:57;;;;;;;31.50;18.98;;;;;;;2.04;87.39;103275.56;5006036;28;20428;-59
2022/01/11 10:44:42;;;;;;;31.35;18.92;;;;;;;2.13;87.05;103279.41;5005583;28;20034;-61
2022/01/11 10:47:08;;;;;;;33.65;19.00;;;;;;;2.10;86.63;103285.06;5005949;28;20367;-60
2022/01/11 10:49:35;;;;;;;31.67;18.90;;;;;;;2.14;87.85;103288.41;5004784;28;20262;-60
2022/01/11 10:52:22;;;;;;;31.27;18.52;;;;;;;2.28;86.99;103282.78;5007109;28;20692;-59
2022/01/11 10:54:48;;;;;;;33.53;18.55;;;;;;;2.28;86.50;103277.38;5006871;28;20022;-59
2022/01/11 10:57:20;;;;;;;31.50;19.30;;;;;;;2.35;86.86;103278.66;5005004;28;20029;-59
2022/01/11 11:00:04;;;;;;;32.65;18.90;;;;;;;2.46;86.85;103275.97;5003659;28;20376;-60
2022/01/11 11:02:30;;;;;;;31.88;19.52;;;;;;;2.50;86.82;103274.75;5006139;28;20034;-59
2022/01/11 11:04:58;;;;;;;35.80;19.95;;;;;;;2.54;86.22;103276.25;5005431;28;20029;-60
2022/01/11 11:07:25;;;;;;;30.60;17.90;;;;;;;2.59;85.40;103270.47;5004001;28;20427;-61